createdAt,value
2022-09-22T00:00:37.976Z,88.74
2022-09-22T00:01:38.028Z,88.74
2022-09-22T00:02:37.903Z,88.64
2022-09-22T00:03:37.891Z,89.36
2022-09-22T00:04:37.887Z,89.15
2022-09-22T00:05:37.868Z,89.25
2022-09-22T00:06:37.870Z,88.84
2022-09-22T00:07:37.851Z,88.74
2022-09-22T00:08:37.856Z,88.74
2022-09-22T00:09:37.827Z,88.27
2022-09-22T00:10:37.834Z,88.37
2022-09-22T00:11:37.802Z,88.47
2022-09-22T00:12:37.803Z,88.47
2022-09-22T00:13:37.780Z,87.75
2022-09-22T00:14:37.768Z,88.78
2022-09-22T00:15:37.766Z,88.78
2022-09-22T00:16:37.805Z,89.29
2022-09-22T00:17:37.734Z,88.27
2022-09-22T00:18:37.721Z,89.40
2022-09-22T00:19:37.711Z,89.19
2022-09-22T00:20:37.713Z,89.19
2022-09-22T00:21:37.716Z,88.89
2022-09-22T00:22:37.707Z,88.57
2022-09-22T00:23:37.667Z,88.06
2022-09-22T00:24:37.670Z,87.69
2022-09-22T00:25:37.648Z,88.51
2022-09-22T00:26:37.631Z,88.10
2022-09-22T00:27:37.638Z,89.03
2022-09-22T00:28:37.627Z,88.82
2022-09-22T00:29:37.615Z,89.34
2022-09-22T00:30:37.594Z,88.62
2022-09-22T00:31:37.630Z,89.34
2022-09-22T00:32:37.562Z,89.34
2022-09-22T00:33:37.578Z,88.62
2022-09-22T00:34:37.545Z,88.92
2022-09-22T00:35:37.543Z,88.92
2022-09-22T00:36:37.531Z,88.82
2022-09-22T00:37:37.525Z,89.13
2022-09-22T00:38:37.494Z,88.92
2022-09-22T00:39:37.489Z,89.44
2022-09-22T00:40:37.606Z,88.82
2022-09-22T00:41:37.487Z,88.82
2022-09-22T00:42:37.464Z,88.92
2022-09-22T00:43:37.441Z,89.23
2022-09-22T00:44:37.428Z,89.34
2022-09-22T00:45:37.425Z,89.23
2022-09-22T00:46:37.458Z,89.23
2022-09-22T00:47:37.414Z,88.82
2022-09-22T00:48:37.392Z,88.41
2022-09-22T00:49:37.377Z,89.03
2022-09-22T00:50:37.376Z,87.90
2022-09-22T00:51:37.358Z,88.92
2022-09-22T00:52:37.342Z,89.07
2022-09-22T00:53:37.341Z,89.28
2022-09-22T00:54:37.320Z,88.45
2022-09-22T00:55:37.312Z,88.76
2022-09-22T00:56:37.315Z,88.66
2022-09-22T00:57:37.293Z,88.56
2022-09-22T00:58:37.299Z,88.35
2022-09-22T00:59:37.266Z,88.35
2022-09-22T01:00:37.353Z,87.73
2022-09-22T01:01:37.279Z,88.04
2022-09-22T01:02:37.225Z,88.14
2022-09-22T01:03:37.235Z,88.56
2022-09-22T01:04:37.226Z,88.14
2022-09-22T01:05:37.201Z,88.66
2022-09-22T01:06:37.176Z,89.07
2022-09-22T01:07:37.170Z,88.86
2022-09-22T01:08:37.160Z,89.48
2022-09-22T01:09:37.157Z,89.58
2022-09-22T01:10:37.149Z,88.66
2022-09-22T01:11:37.130Z,87.94
2022-09-22T01:12:37.131Z,88.96
2022-09-22T01:13:37.104Z,88.86
2022-09-22T01:14:37.103Z,89.38
2022-09-22T01:15:37.126Z,89.07
2022-09-22T01:16:37.074Z,88.96
2022-09-22T01:17:37.057Z,89.07
2022-09-22T01:18:37.044Z,88.96
2022-09-22T01:19:37.035Z,89.17
2022-09-22T01:20:37.053Z,89.17
2022-09-22T01:21:37.037Z,88.86
2022-09-22T01:22:36.996Z,89.07
2022-09-22T01:23:36.989Z,89.28
2022-09-22T01:24:36.974Z,89.42
2022-09-22T01:25:36.969Z,89.31
2022-09-22T01:26:36.963Z,88.90
2022-09-22T01:27:36.958Z,89.42
2022-09-22T01:28:36.948Z,88.80
2022-09-22T01:29:36.929Z,89.22
2022-09-22T01:30:36.907Z,89.42
2022-09-22T01:31:36.994Z,89.31
2022-09-22T01:32:36.912Z,89.31
2022-09-22T01:33:36.881Z,89.42
2022-09-22T01:34:36.861Z,89.22
2022-09-22T01:35:36.857Z,88.90
2022-09-22T01:36:36.845Z,88.90
2022-09-22T01:37:36.845Z,89.01
2022-09-22T01:38:36.832Z,88.90
2022-09-22T01:39:36.810Z,89.31
2022-09-22T01:40:36.867Z,89.42
2022-09-22T01:41:36.783Z,89.52
2022-09-22T01:42:36.784Z,89.62
2022-09-22T01:43:36.762Z,89.11
2022-09-22T01:44:36.772Z,89.46
2022-09-22T01:45:36.743Z,88.70
2022-09-22T01:46:36.776Z,88.23
2022-09-22T01:47:36.748Z,88.74
2022-09-22T01:48:36.707Z,89.05
2022-09-22T01:49:36.697Z,89.25
2022-09-22T01:50:36.694Z,89.31
2022-09-22T01:51:36.673Z,89.05
2022-09-22T01:52:36.656Z,89.25
2022-09-22T01:53:36.658Z,89.56
2022-09-22T01:54:36.636Z,89.36
2022-09-22T01:55:36.632Z,89.05
2022-09-22T01:56:36.615Z,89.25
2022-09-22T01:57:36.625Z,89.62
2022-09-22T01:58:36.594Z,89.25
2022-09-22T01:59:36.589Z,88.74
2022-09-22T02:00:36.589Z,88.95
2022-09-22T02:01:36.696Z,89.40
2022-09-22T02:02:36.675Z,89.05
2022-09-22T02:03:36.533Z,88.26
2022-09-22T02:04:36.522Z,88.06
2022-09-22T02:05:36.516Z,88.74
2022-09-22T02:06:36.504Z,88.47
2022-09-22T02:07:36.493Z,89.09
2022-09-22T02:08:36.573Z,88.89
2022-09-22T02:09:36.487Z,89.09
2022-09-22T02:10:36.460Z,89.61
2022-09-22T02:11:36.447Z,89.09
2022-09-22T02:12:36.434Z,89.29
2022-09-22T02:13:36.432Z,88.78
2022-09-22T02:14:36.435Z,89.19
2022-09-22T02:15:36.471Z,88.99
2022-09-22T02:16:36.403Z,89.09
2022-09-22T02:17:36.378Z,89.19
2022-09-22T02:18:36.387Z,89.40
2022-09-22T02:19:36.373Z,89.50
2022-09-22T02:20:36.341Z,89.50
2022-09-22T02:21:36.328Z,89.19
2022-09-22T02:22:36.319Z,89.09
2022-09-22T02:23:36.307Z,89.09
2022-09-22T02:24:36.330Z,89.50
2022-09-22T02:25:36.284Z,88.89
2022-09-22T02:26:36.272Z,88.99
2022-09-22T02:27:36.263Z,89.65
2022-09-22T02:28:36.268Z,89.50
2022-09-22T02:29:36.236Z,89.40
2022-09-22T02:30:36.248Z,89.40
2022-09-22T02:31:36.246Z,89.50
2022-09-22T02:32:36.241Z,89.40
2022-09-22T02:33:38.285Z,89.40
2022-09-22T02:34:36.204Z,89.71
2022-09-22T02:35:36.186Z,89.40
2022-09-22T02:36:36.162Z,89.13
2022-09-22T02:37:36.144Z,89.13
2022-09-22T02:38:36.141Z,88.26
2022-09-22T02:39:36.135Z,88.41
2022-09-22T02:40:36.256Z,88.41
2022-09-22T02:41:36.118Z,88.20
2022-09-22T02:42:36.105Z,87.99
2022-09-22T02:43:36.074Z,88.31
2022-09-22T02:44:36.081Z,88.51
2022-09-22T02:45:36.051Z,89.23
2022-09-22T02:46:36.070Z,88.92
2022-09-22T02:47:36.046Z,89.54
2022-09-22T02:48:36.042Z,89.13
2022-09-22T02:49:36.026Z,89.34
2022-09-22T02:50:36.007Z,89.44
2022-09-22T02:51:35.986Z,89.58
2022-09-22T02:52:35.998Z,89.58
2022-09-22T02:53:35.988Z,89.48
2022-09-22T02:54:35.952Z,89.44
2022-09-22T02:55:35.942Z,89.54
2022-09-22T02:56:35.952Z,89.95
2022-09-22T02:57:35.916Z,89.54
2022-09-22T02:58:35.928Z,89.34
2022-09-22T02:59:35.891Z,89.85
2022-09-22T03:00:35.897Z,89.44
2022-09-22T03:01:35.910Z,88.86
2022-09-22T03:02:35.863Z,89.07
2022-09-22T03:03:35.849Z,89.48
2022-09-22T03:04:35.933Z,89.17
2022-09-22T03:05:35.825Z,89.38
2022-09-22T03:06:35.817Z,89.17
2022-09-22T03:07:35.814Z,89.28
2022-09-22T03:08:35.793Z,89.17
2022-09-22T03:09:35.797Z,89.17
2022-09-22T03:10:35.777Z,88.96
2022-09-22T03:11:35.764Z,88.76
2022-09-22T03:12:35.782Z,88.04
2022-09-22T03:13:35.735Z,89.28
2022-09-22T03:14:35.752Z,88.56
2022-09-22T03:15:35.737Z,89.69
2022-09-22T03:16:35.713Z,89.17
2022-09-22T03:17:35.702Z,89.07
2022-09-22T03:18:35.700Z,89.38
2022-09-22T03:19:35.668Z,90.00
2022-09-22T03:20:35.691Z,89.38
2022-09-22T03:21:35.659Z,89.58
2022-09-22T03:22:35.637Z,89.79
2022-09-22T03:23:35.637Z,89.48
2022-09-22T03:24:35.615Z,89.69
2022-09-22T03:25:35.612Z,89.38
2022-09-22T03:26:35.591Z,89.38
2022-09-22T03:27:35.587Z,89.38
2022-09-22T03:28:35.568Z,89.11
2022-09-22T03:29:35.584Z,89.11
2022-09-22T03:30:35.559Z,89.69
2022-09-22T03:31:35.544Z,89.73
2022-09-22T03:32:35.523Z,89.73
2022-09-22T03:33:35.512Z,89.52
2022-09-22T03:34:35.501Z,89.22
2022-09-22T03:35:35.497Z,89.11
2022-09-22T03:36:35.497Z,89.52
2022-09-22T03:37:35.478Z,89.42
2022-09-22T03:38:35.454Z,90.41
2022-09-22T03:39:35.451Z,90.04
2022-09-22T03:40:35.459Z,89.89
2022-09-22T03:41:35.417Z,90.31
2022-09-22T03:42:35.408Z,90.00
2022-09-22T03:43:35.420Z,90.20
2022-09-22T03:44:35.400Z,89.79
2022-09-22T03:45:35.373Z,89.28
2022-09-22T03:46:35.364Z,89.69
2022-09-22T03:47:35.350Z,89.32
2022-09-22T03:48:35.340Z,89.32
2022-09-22T03:49:35.359Z,89.52
2022-09-22T03:50:35.331Z,89.48
2022-09-22T03:51:35.304Z,89.42
2022-09-22T03:52:35.324Z,89.32
2022-09-22T03:53:35.278Z,89.62
2022-09-22T03:54:35.307Z,89.62
2022-09-22T03:55:35.271Z,89.73
2022-09-22T03:56:35.254Z,89.83
2022-09-22T03:57:35.281Z,89.83
2022-09-22T03:58:35.228Z,89.73
2022-09-22T03:59:35.210Z,89.52
2022-09-22T04:00:35.204Z,89.83
2022-09-22T04:01:35.243Z,89.52
2022-09-22T04:02:35.299Z,89.32
2022-09-22T04:03:35.165Z,89.11
2022-09-22T04:04:35.157Z,89.11
2022-09-22T04:05:35.150Z,89.22
2022-09-22T04:06:35.134Z,89.25
2022-09-22T04:07:35.145Z,89.15
2022-09-22T04:08:35.134Z,89.22
2022-09-22T04:09:35.097Z,89.15
2022-09-22T04:10:35.115Z,89.56
2022-09-22T04:11:35.080Z,89.67
2022-09-22T04:12:35.068Z,89.36
2022-09-22T04:13:35.056Z,89.36
2022-09-22T04:14:35.073Z,89.36
2022-09-22T04:15:35.031Z,89.67
2022-09-22T04:16:35.106Z,89.15
2022-09-22T04:17:35.009Z,89.46
2022-09-22T04:18:34.995Z,89.67
2022-09-22T04:19:34.984Z,89.77
2022-09-22T04:20:34.996Z,89.46
2022-09-22T04:21:34.975Z,89.56
2022-09-22T04:22:34.951Z,89.50
2022-09-22T04:23:34.943Z,89.50
2022-09-22T04:24:34.958Z,89.50
2022-09-22T04:25:34.915Z,89.81
2022-09-22T04:26:34.921Z,89.81
2022-09-22T04:27:34.902Z,89.71
2022-09-22T04:28:34.883Z,89.98
2022-09-22T04:29:34.875Z,89.56
2022-09-22T04:30:34.959Z,89.67
2022-09-22T04:31:34.861Z,89.40
2022-09-22T04:32:34.913Z,89.77
2022-09-22T04:33:34.852Z,89.81
2022-09-22T04:34:34.817Z,89.77
2022-09-22T04:35:34.803Z,89.56
2022-09-22T04:36:34.841Z,89.67
2022-09-22T04:37:34.778Z,89.46
2022-09-22T04:38:34.770Z,89.87
2022-09-22T04:39:34.758Z,89.50
2022-09-22T04:40:34.860Z,89.67
2022-09-22T04:41:34.752Z,89.50
2022-09-22T04:42:34.725Z,89.50
2022-09-22T04:43:34.708Z,89.50
2022-09-22T04:44:35.479Z,89.19
2022-09-22T04:45:39.386Z,88.98
2022-09-22T04:46:35.703Z,89.40
2022-09-22T04:47:34.694Z,89.86
2022-09-22T04:48:34.671Z,89.40
2022-09-22T04:49:34.653Z,90.53
2022-09-22T04:50:34.634Z,90.64
2022-09-22T04:51:34.621Z,90.33
2022-09-22T04:52:34.635Z,90.28
2022-09-22T04:53:34.609Z,90.22
2022-09-22T04:54:34.590Z,90.33
2022-09-22T04:55:34.573Z,90.22
2022-09-22T04:56:34.600Z,90.33
2022-09-22T04:57:34.673Z,90.33
2022-09-22T04:58:34.541Z,89.61
2022-09-22T04:59:34.528Z,89.81
2022-09-22T05:00:34.521Z,89.61
2022-09-22T05:01:34.642Z,89.71
2022-09-22T05:02:34.498Z,89.86
2022-09-22T05:03:34.534Z,89.50
2022-09-22T05:04:34.475Z,90.64
2022-09-22T05:05:34.458Z,90.47
2022-09-22T05:06:34.475Z,90.22
2022-09-22T05:07:34.438Z,90.22
2022-09-22T05:08:34.431Z,90.84
2022-09-22T05:09:34.438Z,90.84
2022-09-22T05:10:34.414Z,90.91
2022-09-22T05:11:34.404Z,90.91
2022-09-22T05:12:34.400Z,90.84
2022-09-22T05:13:34.365Z,90.95
2022-09-22T05:14:34.386Z,91.26
2022-09-22T05:15:34.354Z,90.33
2022-09-22T05:16:34.366Z,90.33
2022-09-22T05:17:34.325Z,90.08
2022-09-22T05:18:34.311Z,90.02
2022-09-22T05:19:34.300Z,89.81
2022-09-22T05:20:34.301Z,89.50
2022-09-22T05:21:34.274Z,89.75
2022-09-22T05:22:39.134Z,89.92
2022-09-22T05:23:35.290Z,90.12
2022-09-22T05:24:34.247Z,90.12
2022-09-22T05:25:34.245Z,90.12
2022-09-22T05:26:34.228Z,90.33
2022-09-22T05:27:34.208Z,90.43
2022-09-22T05:28:34.215Z,90.43
2022-09-22T05:29:34.222Z,90.12
2022-09-22T05:30:34.197Z,90.22
2022-09-22T05:31:34.263Z,90.33
2022-09-22T05:32:34.226Z,90.43
2022-09-22T05:33:34.137Z,90.22
2022-09-22T05:34:34.219Z,90.22
2022-09-22T05:35:36.813Z,89.92
2022-09-22T05:36:34.163Z,90.39
2022-09-22T05:37:34.091Z,90.22
2022-09-22T05:38:34.103Z,90.28
2022-09-22T05:39:34.074Z,90.53
2022-09-22T05:40:34.147Z,91.26
2022-09-22T05:41:34.087Z,91.16
2022-09-22T05:42:34.064Z,90.84
2022-09-22T05:43:34.041Z,90.91
2022-09-22T05:44:34.101Z,91.52
2022-09-22T05:45:34.151Z,90.84
2022-09-22T05:46:34.038Z,91.22
2022-09-22T05:47:33.977Z,91.42
2022-09-22T05:48:33.969Z,91.42
2022-09-22T05:49:33.957Z,91.42
2022-09-22T05:50:33.948Z,91.42
2022-09-22T05:51:33.928Z,91.11
2022-09-22T05:52:33.964Z,91.32
2022-09-22T05:53:33.911Z,91.22
2022-09-22T05:54:33.907Z,91.11
2022-09-22T05:55:33.893Z,90.80
2022-09-22T05:56:33.895Z,91.11
2022-09-22T05:57:33.865Z,91.52
2022-09-22T05:58:33.873Z,90.80
2022-09-22T05:59:33.839Z,91.11
2022-09-22T06:00:33.856Z,90.70
2022-09-22T06:01:33.882Z,90.91
2022-09-22T06:02:33.872Z,91.17
2022-09-22T06:03:33.820Z,91.42
2022-09-22T06:04:33.787Z,91.17
2022-09-22T06:05:37.056Z,91.01
2022-09-22T06:06:33.786Z,91.42
2022-09-22T06:07:33.749Z,91.22
2022-09-22T06:08:33.742Z,90.86
2022-09-22T06:09:33.756Z,91.58
2022-09-22T06:10:33.722Z,92.61
2022-09-22T06:11:33.722Z,92.10
2022-09-22T06:12:33.708Z,92.31
2022-09-22T06:13:33.685Z,92.37
2022-09-22T06:14:33.689Z,92.37
2022-09-22T06:15:33.663Z,92.51
2022-09-22T06:16:33.770Z,92.37
2022-09-22T06:17:33.650Z,91.85
2022-09-22T06:18:33.643Z,92.16
2022-09-22T06:19:33.636Z,92.16
2022-09-22T06:20:33.602Z,92.06
2022-09-22T06:21:33.615Z,92.06
2022-09-22T06:22:33.603Z,92.37
2022-09-22T06:23:33.580Z,92.06
2022-09-22T06:24:33.554Z,92.33
2022-09-22T06:25:33.553Z,92.43
2022-09-22T06:26:33.535Z,92.22
2022-09-22T06:27:33.571Z,92.02
2022-09-22T06:28:33.512Z,91.81
2022-09-22T06:29:33.508Z,92.22
2022-09-22T06:30:33.497Z,92.02
2022-09-22T06:31:33.529Z,92.02
2022-09-22T06:32:33.508Z,91.77
2022-09-22T06:33:33.467Z,92.18
2022-09-22T06:34:33.446Z,92.59
2022-09-22T06:35:33.429Z,92.49
2022-09-22T06:36:33.422Z,92.59
2022-09-22T06:37:33.425Z,92.38
2022-09-22T06:38:33.590Z,92.49
2022-09-22T06:39:33.396Z,92.44
2022-09-22T06:40:33.475Z,92.76
2022-09-22T06:41:33.362Z,92.55
2022-09-22T06:42:33.362Z,92.34
2022-09-22T06:43:33.370Z,92.82
2022-09-22T06:44:33.349Z,92.40
2022-09-22T06:45:33.469Z,93.33
2022-09-22T06:46:33.314Z,92.92
2022-09-22T06:47:33.295Z,92.77
2022-09-22T06:48:33.315Z,92.93
2022-09-22T06:49:33.278Z,92.27
2022-09-22T06:50:33.260Z,92.33
2022-09-22T06:51:33.256Z,91.88
2022-09-22T06:52:36.020Z,91.12
2022-09-22T06:53:33.255Z,90.81
2022-09-22T06:54:33.242Z,90.71
2022-09-22T06:55:33.207Z,90.62
2022-09-22T06:56:35.707Z,89.25
2022-09-22T06:57:33.184Z,88.45
2022-09-22T06:58:47.166Z,87.35
2022-09-22T06:59:34.169Z,85.49
2022-09-22T07:00:33.420Z,83.65
2022-09-22T07:01:33.245Z,83.00
2022-09-22T07:02:33.138Z,82.59
2022-09-22T07:03:33.130Z,81.53
2022-09-22T07:04:33.160Z,80.78
2022-09-22T07:05:33.094Z,80.74
2022-09-22T07:06:33.078Z,79.62
2022-09-22T07:07:33.077Z,78.60
2022-09-22T07:08:33.074Z,79.11
2022-09-22T07:09:33.058Z,78.74
2022-09-22T07:10:33.033Z,79.04
2022-09-22T07:11:37.476Z,79.25
2022-09-22T07:12:34.035Z,80.00
2022-09-22T07:13:33.016Z,79.39
2022-09-22T07:14:33.007Z,80.55
2022-09-22T07:15:32.979Z,80.55
2022-09-22T07:16:33.116Z,81.57
2022-09-22T07:17:32.981Z,81.40
2022-09-22T07:18:32.943Z,82.22
2022-09-22T07:19:32.948Z,82.05
2022-09-22T07:20:32.960Z,82.77
2022-09-22T07:21:32.925Z,83.18
2022-09-22T07:22:32.896Z,83.79
2022-09-22T07:23:32.894Z,83.54
2022-09-22T07:24:32.911Z,83.47
2022-09-22T07:25:32.866Z,82.92
2022-09-22T07:26:32.892Z,82.57
2022-09-22T07:27:32.845Z,81.01
2022-09-22T07:28:32.832Z,80.77
2022-09-22T07:29:32.843Z,79.24
2022-09-22T07:30:32.827Z,78.89
2022-09-22T07:31:32.841Z,77.64
2022-09-22T07:32:32.813Z,77.09
2022-09-22T07:33:32.794Z,77.56
2022-09-22T07:34:32.765Z,76.10
2022-09-22T07:35:32.762Z,75.26
2022-09-22T07:36:32.765Z,74.48
2022-09-22T07:37:32.747Z,73.06
2022-09-22T07:38:32.720Z,72.25
2022-09-22T07:39:32.713Z,71.64
2022-09-22T07:40:32.802Z,72.34
2022-09-22T07:41:32.694Z,72.45
2022-09-22T07:42:32.690Z,72.65
2022-09-22T07:43:32.690Z,72.25
2022-09-22T07:44:32.650Z,73.22
2022-09-22T07:45:32.646Z,73.36
2022-09-22T07:46:32.690Z,72.65
2022-09-22T07:47:32.626Z,73.09
2022-09-22T07:48:32.610Z,73.50
2022-09-22T07:49:32.639Z,74.24
2022-09-22T07:50:32.583Z,75.60
2022-09-22T07:51:32.573Z,75.33
2022-09-22T07:52:32.617Z,75.23
2022-09-22T07:53:32.569Z,76.28
2022-09-22T07:54:32.540Z,76.28
2022-09-22T07:55:32.527Z,76.99
2022-09-22T07:56:33.457Z,77.36
2022-09-22T07:57:32.524Z,77.16
2022-09-22T07:58:32.499Z,77.47
2022-09-22T07:59:32.493Z,77.06
2022-09-22T08:00:32.527Z,75.77
2022-09-22T08:01:32.477Z,76.48
2022-09-22T08:02:32.460Z,76.34
2022-09-22T08:03:39.530Z,76.75
2022-09-22T08:04:32.435Z,76.95
2022-09-22T08:05:32.418Z,77.02
2022-09-22T08:06:32.423Z,76.82
2022-09-22T08:07:32.394Z,76.72
2022-09-22T08:08:32.407Z,76.82
2022-09-22T08:09:32.369Z,77.22
2022-09-22T08:10:32.353Z,76.01
2022-09-22T08:11:32.351Z,76.07
2022-09-22T08:12:32.343Z,75.76
2022-09-22T08:13:32.324Z,75.76
2022-09-22T08:14:32.308Z,76.17
2022-09-22T08:15:32.327Z,76.58
2022-09-22T08:16:32.365Z,76.28
2022-09-22T08:17:32.288Z,75.52
2022-09-22T08:18:32.271Z,75.63
2022-09-22T08:19:32.262Z,75.93
2022-09-22T08:20:32.337Z,75.05
2022-09-22T08:21:32.250Z,74.31
2022-09-22T08:22:32.219Z,74.62
2022-09-22T08:23:32.210Z,75.43
2022-09-22T08:24:32.247Z,75.52
2022-09-22T08:25:32.217Z,76.00
2022-09-22T08:26:32.178Z,75.29
2022-09-22T08:27:32.184Z,74.58
2022-09-22T08:28:32.172Z,74.68
2022-09-22T08:29:32.150Z,75.46
2022-09-22T08:30:32.140Z,73.97
2022-09-22T08:31:32.221Z,73.26
2022-09-22T08:32:32.116Z,74.65
2022-09-22T08:33:32.125Z,73.63
2022-09-22T08:34:32.106Z,73.43
2022-09-22T08:35:32.087Z,73.02
2022-09-22T08:36:32.061Z,71.88
2022-09-22T08:37:32.065Z,73.39
2022-09-22T08:38:32.051Z,72.78
2022-09-22T08:39:32.050Z,72.28
2022-09-22T08:40:32.223Z,70.86
2022-09-22T08:41:32.031Z,70.86
2022-09-22T08:42:32.007Z,72.34
2022-09-22T08:43:31.986Z,71.73
2022-09-22T08:44:31.990Z,72.65
2022-09-22T08:45:31.972Z,75.55
2022-09-22T08:46:31.977Z,74.84
2022-09-22T08:47:31.950Z,71.09
2022-09-22T08:48:31.926Z,71.00
2022-09-22T08:49:31.987Z,72.61
2022-09-22T08:50:31.918Z,72.11
2022-09-22T08:51:31.907Z,71.60
2022-09-22T08:52:31.887Z,71.70
2022-09-22T08:53:31.874Z,72.68
2022-09-22T08:54:31.880Z,70.65
2022-09-22T08:55:31.860Z,71.77
2022-09-22T08:56:31.877Z,71.97
2022-09-22T08:57:31.836Z,70.15
2022-09-22T08:58:31.823Z,70.05
2022-09-22T08:59:31.807Z,70.42
2022-09-22T09:00:31.803Z,71.64
2022-09-22T09:01:31.819Z,71.94
2022-09-22T09:02:31.825Z,71.91
2022-09-22T09:03:31.762Z,71.30
2022-09-22T09:04:31.748Z,70.69
2022-09-22T09:05:31.755Z,67.25
2022-09-22T09:06:31.726Z,66.95
2022-09-22T09:07:31.723Z,66.52
2022-09-22T09:08:31.712Z,65.98
2022-09-22T09:09:31.717Z,65.00
2022-09-22T09:10:31.708Z,65.07
2022-09-22T09:11:31.678Z,64.76
2022-09-22T09:12:31.689Z,65.64
2022-09-22T09:13:31.662Z,67.06
2022-09-22T09:14:31.636Z,67.66
2022-09-22T09:15:31.634Z,65.75
2022-09-22T09:16:34.228Z,65.84
2022-09-22T09:17:32.628Z,64.94
2022-09-22T09:18:31.596Z,64.43
2022-09-22T09:19:31.586Z,65.14
2022-09-22T09:20:31.586Z,65.14
2022-09-22T09:21:31.565Z,65.04
2022-09-22T09:22:31.550Z,65.11
2022-09-22T09:25:32.526Z,64.37
2022-09-22T09:26:31.502Z,63.76
2022-09-22T09:27:31.500Z,62.96
2022-09-22T09:28:31.578Z,64.47
2022-09-22T09:29:31.475Z,62.85
2022-09-22T09:30:31.487Z,63.03
2022-09-22T09:31:31.519Z,62.83
2022-09-22T09:32:31.429Z,62.63
2022-09-22T09:33:31.435Z,62.93
2022-09-22T09:34:31.430Z,62.93
2022-09-22T09:35:31.420Z,63.84
2022-09-22T09:36:31.407Z,62.43
2022-09-22T09:37:31.387Z,62.12
2022-09-22T09:38:31.362Z,64.44
2022-09-22T09:39:31.358Z,61.99
2022-09-22T09:40:31.382Z,62.70
2022-09-22T09:41:31.351Z,62.63
2022-09-22T09:42:31.320Z,62.63
2022-09-22T09:43:31.313Z,62.29
2022-09-22T09:44:31.315Z,64.28
2022-09-22T09:45:31.321Z,64.11
2022-09-22T09:46:31.299Z,62.77
2022-09-22T09:47:31.279Z,61.99
2022-09-22T09:48:31.255Z,61.76
2022-09-22T09:49:31.242Z,62.46
2022-09-22T09:50:31.335Z,60.96
2022-09-22T09:51:31.219Z,59.64
2022-09-22T09:52:31.217Z,59.84
2022-09-22T09:53:31.201Z,59.95
2022-09-22T09:54:31.184Z,62.06
2022-09-22T09:55:31.183Z,63.24
2022-09-22T09:56:31.170Z,62.24
2022-09-22T09:57:31.152Z,60.80
2022-09-22T09:58:31.141Z,59.69
2022-09-22T09:59:31.137Z,60.09
2022-09-22T10:00:31.137Z,58.38
2022-09-22T10:01:31.181Z,58.68
2022-09-22T10:02:31.090Z,58.71
2022-09-22T10:03:31.147Z,60.29
2022-09-22T10:04:31.068Z,59.39
2022-09-22T10:05:31.068Z,59.79
2022-09-22T10:06:31.060Z,59.86
2022-09-22T10:08:31.025Z,59.56
2022-09-22T10:09:31.023Z,57.35
2022-09-22T10:10:31.005Z,59.46
2022-09-22T10:11:31.033Z,58.83
2022-09-22T10:12:30.978Z,58.73
2022-09-22T10:13:30.982Z,57.82
2022-09-22T10:14:30.956Z,57.32
2022-09-22T10:15:31.028Z,57.32
2022-09-22T10:16:30.977Z,58.33
2022-09-22T10:17:30.937Z,56.84
2022-09-22T10:18:30.910Z,57.45
2022-09-22T10:19:30.926Z,57.15
2022-09-22T10:20:30.889Z,57.15
2022-09-22T10:21:30.916Z,56.95
2022-09-22T10:22:30.866Z,56.14
2022-09-22T10:23:30.858Z,56.64
2022-09-22T10:24:30.852Z,57.45
2022-09-22T10:25:30.851Z,58.93
2022-09-22T10:26:30.831Z,58.83
2022-09-22T10:27:30.843Z,56.11
2022-09-22T10:28:30.792Z,56.59
2022-09-22T10:29:30.820Z,57.79
2022-09-22T10:30:30.777Z,57.50
2022-09-22T10:31:30.843Z,55.08
2022-09-22T10:32:30.783Z,54.78
2022-09-22T10:33:30.746Z,55.48
2022-09-22T10:34:30.728Z,55.08
2022-09-22T10:35:30.775Z,55.28
2022-09-22T10:36:30.710Z,56.19
2022-09-22T10:37:30.710Z,55.48
2022-09-22T10:38:30.850Z,56.69
2022-09-22T10:39:30.678Z,56.26
2022-09-22T10:40:30.714Z,53.25
2022-09-22T10:41:30.686Z,55.35
2022-09-22T10:42:30.644Z,53.77
2022-09-22T10:43:30.631Z,54.17
2022-09-22T10:44:40.086Z,55.18
2022-09-22T10:45:31.615Z,54.68
2022-09-22T10:46:30.718Z,54.35
2022-09-22T10:47:30.580Z,55.26
2022-09-22T10:48:30.590Z,55.13
2022-09-22T10:49:30.564Z,53.62
2022-09-22T10:50:30.550Z,53.42
2022-09-22T10:51:30.542Z,53.70
2022-09-22T10:52:30.539Z,53.92
2022-09-22T10:53:30.520Z,55.23
2022-09-22T10:54:30.505Z,53.30
2022-09-22T10:55:30.488Z,53.39
2022-09-22T10:56:30.476Z,53.50
2022-09-22T10:57:30.479Z,53.39
2022-09-22T10:58:30.450Z,51.39
2022-09-22T10:59:30.466Z,53.30
2022-09-22T11:00:32.195Z,53.17
2022-09-22T11:01:30.498Z,54.10
2022-09-22T11:02:30.413Z,52.49
2022-09-22T11:03:30.403Z,53.50
2022-09-22T11:04:30.514Z,53.39
2022-09-22T11:05:30.409Z,53.70
2022-09-22T11:06:30.391Z,52.69
2022-09-22T11:07:30.355Z,52.57
2022-09-22T11:08:30.383Z,52.37
2022-09-22T11:09:30.393Z,51.26
2022-09-22T11:10:30.323Z,53.47
2022-09-22T11:11:30.795Z,53.00
2022-09-22T11:12:30.305Z,53.62
2022-09-22T11:13:30.297Z,53.22
2022-09-22T11:14:30.556Z,53.30
2022-09-22T11:15:30.345Z,52.51
2022-09-22T11:16:30.268Z,53.32
2022-09-22T11:17:30.293Z,53.42
2022-09-22T11:18:30.247Z,54.53
2022-09-22T11:19:30.252Z,53.47
2022-09-22T11:20:30.231Z,52.17
2022-09-22T11:21:33.016Z,51.26
2022-09-22T11:22:30.251Z,51.89
2022-09-22T11:23:30.182Z,52.17
2022-09-22T11:24:30.181Z,52.17
2022-09-22T11:25:30.150Z,50.36
2022-09-22T11:26:30.147Z,50.86
2022-09-22T11:27:30.125Z,47.45
2022-09-22T11:28:30.132Z,47.35
2022-09-22T11:29:30.108Z,49.54
2022-09-22T11:30:30.098Z,50.04
2022-09-22T11:31:30.079Z,51.44
2022-09-22T11:32:30.072Z,49.51
2022-09-22T11:33:30.073Z,47.93
2022-09-22T11:34:30.057Z,49.54
2022-09-22T11:35:30.073Z,50.96
2022-09-22T11:36:30.067Z,52.42
2022-09-22T11:37:30.072Z,50.11
2022-09-22T11:38:30.015Z,50.43
2022-09-22T11:39:29.997Z,50.63
2022-09-22T11:40:30.057Z,51.46
2022-09-22T11:41:29.984Z,50.96
2022-09-22T11:42:30.032Z,52.39
2022-09-22T11:43:29.952Z,51.97
2022-09-22T11:44:29.962Z,51.46
2022-09-22T11:45:29.929Z,50.08
2022-09-22T11:46:29.978Z,49.88
2022-09-22T11:47:29.907Z,51.56
2022-09-22T11:48:29.915Z,50.96
2022-09-22T11:49:29.898Z,50.61
2022-09-22T11:50:29.878Z,50.71
2022-09-22T11:51:29.879Z,48.20
2022-09-22T11:52:29.870Z,48.18
2022-09-22T11:53:29.835Z,49.38
2022-09-22T11:54:29.882Z,49.05
2022-09-22T11:55:29.814Z,49.16
2022-09-22T11:56:29.801Z,47.35
2022-09-22T11:57:29.800Z,47.05
2022-09-22T11:58:29.781Z,48.05
2022-09-22T11:59:29.768Z,48.75
2022-09-22T12:00:29.793Z,48.66
2022-09-22T12:01:29.743Z,48.75
2022-09-22T12:02:29.884Z,48.33
2022-09-22T12:03:29.843Z,48.13
2022-09-22T12:04:29.721Z,47.33
2022-09-22T12:05:29.710Z,46.35
2022-09-22T12:06:29.693Z,48.38
2022-09-22T12:07:29.705Z,49.71
2022-09-22T12:08:29.740Z,49.40
2022-09-22T12:09:32.836Z,49.48
2022-09-22T12:10:30.647Z,49.76
2022-09-22T12:11:29.638Z,47.77
2022-09-22T12:12:29.627Z,47.97
2022-09-22T12:13:29.669Z,48.08
2022-09-22T12:14:29.604Z,48.60
2022-09-22T12:15:29.584Z,49.80
2022-09-22T12:16:29.591Z,48.70
2022-09-22T12:17:29.564Z,49.80
2022-09-22T12:18:29.599Z,49.58
2022-09-22T12:19:29.541Z,49.78
2022-09-22T12:20:29.536Z,48.66
2022-09-22T12:21:29.522Z,49.76
2022-09-22T12:22:29.511Z,49.96
2022-09-22T12:23:29.510Z,49.96
2022-09-22T12:24:29.526Z,50.96
2022-09-22T12:25:47.514Z,51.34
2022-09-22T12:26:30.466Z,51.24
2022-09-22T12:27:29.450Z,49.81
2022-09-22T12:28:29.453Z,48.21
2022-09-22T12:29:29.433Z,49.21
2022-09-22T12:30:29.529Z,50.19
2022-09-22T12:31:29.423Z,50.49
2022-09-22T12:32:29.408Z,49.69
2022-09-22T12:33:29.394Z,48.08
2022-09-22T12:34:29.392Z,48.96
2022-09-22T12:35:30.983Z,47.88
2022-09-22T12:36:29.374Z,48.19
2022-09-22T12:37:29.339Z,48.19
2022-09-22T12:38:29.333Z,46.41
2022-09-22T12:39:29.331Z,46.81
2022-09-22T12:40:29.368Z,46.38
2022-09-22T12:41:29.295Z,46.58
2022-09-22T12:42:29.292Z,46.70
2022-09-22T12:43:29.293Z,46.20
2022-09-22T12:44:29.291Z,47.65
2022-09-22T12:45:29.251Z,47.88
2022-09-22T12:46:29.251Z,46.29
2022-09-22T12:47:29.226Z,48.10
2022-09-22T12:48:29.218Z,48.40
2022-09-22T12:49:29.232Z,48.12
2022-09-22T12:50:29.197Z,48.14
2022-09-22T12:51:29.180Z,48.07
2022-09-22T12:52:29.176Z,49.85
2022-09-22T12:53:29.236Z,49.68
2022-09-22T12:54:29.154Z,47.85
2022-09-22T12:55:29.154Z,48.02